Time;durP1;ratioP1;P1;durP2;ratioP2;P2;SDS_P1;SDS_P2;PMS_P1;PMS_P2;Temp;Humidity;BMP_temperature;BMP_pressure;BME280_temperature;BME280_humidity;BME280_pressure;Samples;Min_cycle;Max_cycle;Signal;HPM_P1;HPM_P2
2022/05/30 00:00:44;;;;;;;4.53;2.50;;;8.10;99.90;;;;;;5109383;28;20233;-52
2022/05/30 00:03:13;;;;;;;3.93;2.70;;;8.20;99.90;;;;;;5108416;28;20256;-52
2022/05/30 00:05:46;;;;;;;8.40;7.27;;;8.30;99.90;;;;;;5094303;28;20285;-51
2022/05/30 00:08:14;;;;;;;11.00;10.00;;;8.30;99.90;;;;;;5109458;28;20298;-51
2022/05/30 00:10:42;;;;;;;4.20;3.50;;;8.30;99.90;;;;;;5109052;28;20264;-51
2022/05/30 00:13:13;;;;;;;3.10;2.57;;;8.30;99.90;;;;;;5108732;28;20262;-52
2022/05/30 00:15:41;;;;;;;4.77;2.60;;;8.30;99.90;;;;;;5109742;28;20710;-51
2022/05/30 00:18:09;;;;;;;4.07;2.80;;;8.30;99.90;;;;;;5110773;28;20204;-51
2022/05/30 00:20:38;;;;;;;5.27;2.63;;;8.30;99.90;;;;;;5113113;28;20203;-51
2022/05/30 00:23:06;;;;;;;3.47;2.60;;;8.40;99.90;;;;;;5113662;28;20630;-51
2022/05/30 00:25:34;;;;;;;4.10;2.43;;;8.50;99.90;;;;;;5114476;28;20207;-51
2022/05/30 00:28:02;;;;;;;2.67;2.40;;;8.50;99.90;;;;;;5101646;28;20299;-51
2022/05/30 00:30:31;;;;;;;2.67;2.40;;;8.50;99.90;;;;;;5113852;28;20216;-51
2022/05/30 00:32:59;;;;;;;3.23;2.20;;;8.40;99.90;;;;;;5113582;28;20230;-51
2022/05/30 00:35:28;;;;;;;2.40;2.20;;;8.40;99.90;;;;;;5113490;28;20231;-51
2022/05/30 00:37:56;;;;;;;28.33;15.23;;;8.40;99.90;;;;;;5113593;28;20256;-51
2022/05/30 00:40:24;;;;;;;40.67;16.53;;;8.50;99.90;;;;;;5114197;28;20613;-51
2022/05/30 00:42:52;;;;;;;31.80;12.97;;;8.50;99.90;;;;;;5113039;28;20375;-51
2022/05/30 00:45:20;;;;;;;29.50;11.93;;;8.50;99.90;;;;;;5113900;28;20225;-51
2022/05/30 00:47:51;;;;;;;30.60;14.30;;;8.50;99.90;;;;;;5110647;28;20705;-51
2022/05/30 00:50:19;;;;;;;5.70;3.10;;;8.60;99.90;;;;;;5102006;28;20252;-51
2022/05/30 00:52:47;;;;;;;6.23;5.00;;;8.60;99.90;;;;;;5112006;28;20664;-51
2022/05/30 00:55:18;;;;;;;25.67;19.97;;;8.60;99.90;;;;;;5113686;28;20281;-51
2022/05/30 00:57:48;;;;;;;9.70;7.50;;;8.60;99.90;;;;;;5113113;28;20287;-50
2022/05/30 01:00:19;;;;;;;21.63;17.67;;;8.50;99.90;;;;;;5112401;28;20725;-51
2022/05/30 01:06:30;;;;;;;23.53;20.37;;;8.60;99.90;;;;;;5112562;28;20234;-51
2022/05/30 01:08:29;;;;;;;7.67;4.70;;;8.60;99.90;;;;;;5111865;28;20212;-51
2022/05/30 01:10:58;;;;;;;2.90;2.20;;;8.60;99.90;;;;;;5100573;28;20208;-51
2022/05/30 01:13:27;;;;;;;4.27;3.20;;;8.70;99.90;;;;;;5112021;28;20231;-51
2022/05/30 01:15:56;;;;;;;6.63;3.30;;;8.70;99.90;;;;;;5103531;28;20205;-51
2022/05/30 01:18:28;;;;;;;7.60;5.23;;;8.70;99.90;;;;;;5100828;28;20211;-51
2022/05/30 01:21:11;;;;;;;6.80;4.40;;;8.70;99.90;;;;;;5094949;28;20236;-51
2022/05/30 01:23:52;;;;;;;4.03;3.03;;;8.80;99.90;;;;;;5107306;28;20728;-51
2022/05/30 01:26:38;;;;;;;6.13;2.90;;;8.80;99.90;;;;;;5100562;28;20195;-51
2022/05/30 01:29:13;;;;;;;5.33;2.80;;;8.70;99.90;;;;;;5111539;28;20227;-51
2022/05/30 01:31:41;;;;;;;3.30;2.83;;;8.80;99.90;;;;;;5111919;28;20207;-50
2022/05/30 01:34:09;;;;;;;3.30;2.63;;;8.80;99.90;;;;;;5100227;28;20264;-51
2022/05/30 01:36:37;;;;;;;5.17;2.57;;;8.80;99.90;;;;;;5110073;28;20203;-51
2022/05/30 01:39:06;;;;;;;5.40;2.60;;;8.80;99.90;;;;;;5112304;28;20219;-51
2022/05/30 01:41:34;;;;;;;5.27;3.20;;;8.70;99.90;;;;;;5111710;28;20207;-51
2022/05/30 01:44:02;;;;;;;3.00;2.60;;;8.70;99.90;;;;;;5111629;28;20250;-51
2022/05/30 01:46:32;;;;;;;3.77;2.80;;;8.80;99.90;;;;;;5112165;28;20256;-51
2022/05/30 01:49:00;;;;;;;4.03;2.90;;;8.80;99.90;;;;;;5111631;28;20211;-51
2022/05/30 01:51:28;;;;;;;4.40;3.30;;;8.80;99.90;;;;;;5097237;28;20287;-51
2022/05/30 01:53:56;;;;;;;7.23;3.00;;;8.80;99.90;;;;;;5097661;28;20231;-51
2022/05/30 01:56:24;;;;;;;3.80;3.00;;;8.90;99.90;;;;;;5112061;28;20250;-51
2022/05/30 01:58:52;;;;;;;4.13;3.00;;;8.90;99.90;;;;;;5112320;28;20261;-51
2022/05/30 02:01:22;;;;;;;5.17;3.03;;;8.90;99.90;;;;;;5112305;28;20239;-51
2022/05/30 02:03:53;;;;;;;3.87;3.10;;;8.90;99.90;;;;;;5110991;28;20230;-51
2022/05/30 02:06:23;;;;;;;4.87;2.87;;;8.90;99.90;;;;;;5111295;28;20207;-51
2022/05/30 02:08:51;;;;;;;3.87;2.80;;;8.90;99.90;;;;;;5111635;28;20287;-51
2022/05/30 02:11:19;;;;;;;3.10;2.80;;;8.90;99.90;;;;;;5111851;28;20290;-51
2022/05/30 02:13:48;;;;;;;4.50;2.70;;;9.00;99.90;;;;;;5112781;28;20227;-50
2022/05/30 02:19:04;;;;;;;3.63;2.87;;;9.00;99.90;;;;;;5113113;28;20292;-51
2022/05/30 02:21:34;;;;;;;3.33;2.80;;;9.00;99.90;;;;;;5110403;28;20624;-52
2022/05/30 02:24:02;;;;;;;5.23;3.33;;;9.00;99.90;;;;;;5110183;28;20235;-51
2022/05/30 02:26:30;;;;;;;4.80;3.10;;;9.00;99.90;;;;;;5098366;28;20204;-51
2022/05/30 02:28:58;;;;;;;4.63;3.00;;;9.00;99.90;;;;;;5111225;28;20273;-51
2022/05/30 02:31:27;;;;;;;6.07;3.07;;;9.00;99.90;;;;;;5111246;28;20215;-51
2022/05/30 02:36:44;;;;;;;6.73;3.30;;;9.00;99.90;;;;;;5110702;28;20239;-51
2022/05/30 02:39:14;;;;;;;5.63;3.37;;;9.00;99.90;;;;;;5110988;28;20247;-51
2022/05/30 02:41:44;;;;;;;5.50;3.10;;;9.10;99.90;;;;;;5095692;28;20235;-52
2022/05/30 02:44:13;;;;;;;5.20;3.00;;;9.10;99.90;;;;;;5110319;28;20651;-52
2022/05/30 02:46:41;;;;;;;5.60;3.30;;;9.10;99.90;;;;;;5113093;28;20580;-50
2022/05/30 02:49:10;;;;;;;4.67;2.80;;;9.10;99.90;;;;;;5104418;28;20255;-51
2022/05/30 02:51:38;;;;;;;4.97;3.20;;;9.10;99.90;;;;;;5110242;28;20246;-51
2022/05/30 02:54:07;;;;;;;4.43;3.50;;;9.10;99.90;;;;;;5110114;28;20274;-51
2022/05/30 02:56:36;;;;;;;4.80;3.30;;;9.10;99.90;;;;;;5110356;28;20199;-51
2022/05/30 02:59:05;;;;;;;3.73;2.93;;;9.10;99.90;;;;;;5110862;28;20227;-52
2022/05/30 03:01:34;;;;;;;6.10;3.20;;;9.10;99.90;;;;;;5110310;28;20625;-51
2022/05/30 03:04:05;;;;;;;4.43;3.37;;;9.10;99.90;;;;;;5110026;28;20228;-51
2022/05/30 03:06:33;;;;;;;7.20;3.23;;;9.10;99.90;;;;;;5109926;28;20246;-51
2022/05/30 03:09:01;;;;;;;6.37;3.30;;;9.10;99.90;;;;;;5110200;28;20587;-51
2022/05/30 03:11:31;;;;;;;6.43;3.47;;;9.20;99.90;;;;;;5110452;28;20246;-51
2022/05/30 03:13:59;;;;;;;9.87;3.57;;;9.20;99.90;;;;;;5109250;28;20223;-51
2022/05/30 03:16:27;;;;;;;6.37;3.77;;;9.20;99.90;;;;;;5110380;28;20260;-52
2022/05/30 03:18:56;;;;;;;5.90;3.20;;;9.20;99.90;;;;;;5109854;28;20575;-51
2022/05/30 03:21:24;;;;;;;3.97;3.13;;;9.20;99.90;;;;;;5109553;28;20650;-52
2022/05/30 03:23:53;;;;;;;3.97;3.00;;;9.20;99.90;;;;;;5109222;28;20289;-51
2022/05/30 03:26:21;;;;;;;3.87;2.80;;;9.30;99.90;;;;;;5096110;28;20618;-51
2022/05/30 03:28:51;;;;;;;6.20;2.80;;;9.20;99.90;;;;;;5110628;28;20280;-51
2022/05/30 03:31:19;;;;;;;4.47;2.93;;;9.20;99.90;;;;;;5109693;28;20673;-51
2022/05/30 03:33:47;;;;;;;7.17;3.17;;;9.10;99.90;;;;;;5108815;28;20260;-51
2022/05/30 03:36:17;;;;;;;5.67;3.17;;;9.10;99.90;;;;;;5109608;28;20685;-51
2022/05/30 03:38:46;;;;;;;3.43;2.67;;;9.10;99.90;;;;;;5109802;28;20237;-51
2022/05/30 03:41:15;;;;;;;6.53;3.40;;;9.00;99.90;;;;;;5103736;28;20239;-50
2022/05/30 03:43:43;;;;;;;3.67;3.00;;;9.00;99.90;;;;;;5109214;28;20228;-51
2022/05/30 03:46:12;;;;;;;3.83;3.10;;;9.00;99.90;;;;;;5109547;28;20207;-51
2022/05/30 03:48:41;;;;;;;6.90;3.07;;;9.00;99.90;;;;;;5117838;27;20690;-51
2022/05/30 03:51:13;;;;;;;6.57;3.13;;;9.00;99.90;;;;;;5103862;28;20714;-51
2022/05/30 03:53:43;;;;;;;6.80;3.30;;;9.00;99.90;;;;;;5094817;28;20259;-51
2022/05/30 03:56:12;;;;;;;5.23;3.50;;;9.00;99.90;;;;;;5101830;28;20230;-51
2022/05/30 03:58:40;;;;;;;7.43;3.67;;;9.10;99.90;;;;;;5092271;28;20641;-51
2022/05/30 04:01:09;;;;;;;6.73;3.60;;;9.10;99.90;;;;;;5096564;28;20208;-51
2022/05/30 04:03:39;;;;;;;6.23;3.73;;;9.20;99.90;;;;;;5088220;28;20223;-51
2022/05/30 04:06:08;;;;;;;4.10;3.10;;;9.30;99.90;;;;;;5088251;28;20208;-51
2022/05/30 04:08:36;;;;;;;7.80;3.63;;;9.40;99.90;;;;;;5102889;28;20216;-51
2022/05/30 04:11:04;;;;;;;7.53;3.00;;;9.40;99.90;;;;;;5106986;28;20242;-51
2022/05/30 04:13:33;;;;;;;8.50;3.17;;;9.70;99.90;;;;;;5093935;28;20263;-51
2022/05/30 04:16:09;;;;;;;6.27;3.17;;;9.80;99.90;;;;;;5101018;28;20727;-51
2022/05/30 04:18:38;;;;;;;10.17;3.23;;;9.80;99.90;;;;;;5101235;28;20257;-51
2022/05/30 04:21:07;;;;;;;5.03;2.77;;;10.20;99.90;;;;;;5100822;28;20231;-51
2022/05/30 04:23:35;;;;;;;5.63;3.40;;;10.10;99.90;;;;;;5104750;28;20215;-51
2022/05/30 04:26:05;;;;;;;6.80;3.30;;;10.20;99.90;;;;;;5104099;28;20231;-51
2022/05/30 04:28:33;;;;;;;10.07;3.57;;;10.70;99.90;;;;;;5105781;28;20231;-52
2022/05/30 04:31:06;;;;;;;6.40;3.33;;;11.10;99.90;;;;;;5104559;28;20239;-51
2022/05/30 04:33:34;;;;;;;9.10;2.80;;;11.80;99.90;;;;;;5097740;28;20833;-55
2022/05/30 04:36:04;;;;;;;6.83;3.00;;;12.40;99.90;;;;;;5086873;28;20269;-52
2022/05/30 04:38:33;;;;;;;3.63;2.80;;;12.80;99.90;;;;;;5094742;28;20234;-51
2022/05/30 04:41:01;;;;;;;6.00;3.40;;;12.70;99.90;;;;;;5095108;28;20257;-51
2022/05/30 04:43:32;;;;;;;6.10;3.40;;;12.50;99.90;;;;;;5102899;28;20290;-51
2022/05/30 04:46:06;;;;;;;5.40;3.00;;;12.40;99.90;;;;;;5092877;28;20224;-51
2022/05/30 04:48:35;;;;;;;7.47;2.90;;;13.10;99.90;;;;;;5095121;28;20257;-51
2022/05/30 04:51:05;;;;;;;7.83;3.10;;;13.50;99.90;;;;;;5088924;28;20261;-51
2022/05/30 04:53:34;;;;;;;5.17;2.60;;;13.60;99.90;;;;;;5086996;28;20708;-52
2022/05/30 04:56:03;;;;;;;4.27;2.70;;;13.70;99.90;;;;;;5088507;28;20825;-51
2022/05/30 04:58:32;;;;;;;7.90;2.63;;;13.80;99.90;;;;;;5108339;28;20200;-52
2022/05/30 05:01:03;;;;;;;4.67;2.73;;;13.40;99.90;;;;;;5088319;28;20224;-51
2022/05/30 05:03:33;;;;;;;7.03;3.03;;;13.50;99.90;;;;;;5095469;28;20285;-51
2022/05/30 05:06:03;;;;;;;7.77;2.73;;;13.60;99.90;;;;;;5105782;28;20204;-52
2022/05/30 05:08:43;;;;;;;5.07;2.73;;;13.80;99.90;;;;;;5104629;28;20243;-51
2022/05/30 05:11:19;;;;;;;6.00;2.50;;;14.30;99.90;;;;;;5100775;28;20197;-51
2022/05/30 05:13:47;;;;;;;8.93;2.78;;;14.40;99.90;;;;;;5087997;28;20255;-52
2022/05/30 05:16:17;;;;;;;3.65;2.03;;;14.60;99.90;;;;;;5098600;28;20340;-52
2022/05/30 05:18:45;;;;;;;5.57;2.58;;;14.90;99.90;;;;;;5104012;27;20307;-51
2022/05/30 05:21:18;;;;;;;6.45;2.50;;;14.60;99.90;;;;;;5091920;28;20200;-52
2022/05/30 05:23:49;;;;;;;6.80;2.63;;;14.20;99.90;;;;;;5094074;28;20275;-52
2022/05/30 05:26:18;;;;;;;10.50;3.50;;;13.80;99.90;;;;;;5097182;28;20609;-52
2022/05/30 05:28:48;;;;;;;8.83;3.07;;;13.50;99.90;;;;;;5111540;28;20203;-52
2022/05/30 05:31:21;;;;;;;7.43;3.07;;;13.20;99.90;;;;;;5111717;28;21011;-52
2022/05/30 05:33:51;;;;;;;6.10;3.03;;;13.00;99.90;;;;;;5111992;28;20262;-52
2022/05/30 05:36:21;;;;;;;4.13;2.60;;;13.00;99.90;;;;;;5111921;28;20277;-52
2022/05/30 05:38:51;;;;;;;2.93;2.30;;;12.80;99.90;;;;;;5117810;27;20215;-51
2022/05/30 05:41:19;;;;;;;5.37;2.40;;;12.70;99.90;;;;;;5111776;28;20208;-51
2022/05/30 05:43:47;;;;;;;6.10;2.30;;;12.60;99.90;;;;;;5112152;28;20262;-51
2022/05/30 05:46:16;;;;;;;5.90;2.20;;;12.50;99.90;;;;;;5103384;28;20245;-51
2022/05/30 05:48:45;;;;;;;2.60;2.33;;;12.50;99.90;;;;;;5111892;27;20280;-51
2022/05/30 05:51:14;;;;;;;6.27;2.50;;;12.50;99.90;;;;;;5114779;27;20199;-52
2022/05/30 05:53:42;;;;;;;6.73;2.17;;;12.40;99.90;;;;;;5101813;28;20671;-51
2022/05/30 05:56:13;;;;;;;4.53;2.07;;;12.30;99.90;;;;;;5111222;28;20281;-52
2022/05/30 05:58:42;;;;;;;5.67;2.10;;;12.40;99.90;;;;;;5122298;27;20237;-52
2022/05/30 06:01:16;;;;;;;4.17;2.03;;;12.50;99.90;;;;;;5115383;27;20214;-52
2022/05/30 06:03:45;;;;;;;5.67;2.17;;;12.60;99.90;;;;;;5101158;28;20224;-51
2022/05/30 06:06:14;;;;;;;5.00;2.17;;;12.70;99.90;;;;;;5107051;28;20620;-51
2022/05/30 06:08:42;;;;;;;4.10;2.30;;;12.80;99.90;;;;;;5111211;28;20200;-52
2022/05/30 06:11:12;;;;;;;4.97;2.00;;;12.80;99.90;;;;;;5111902;28;20549;-52
2022/05/30 06:13:42;;;;;;;3.90;2.40;;;12.90;99.90;;;;;;5097078;28;20223;-52
2022/05/30 06:16:12;;;;;;;4.40;1.90;;;12.80;99.90;;;;;;5110523;28;20251;-51
2022/05/30 06:18:40;;;;;;;4.10;1.97;;;12.80;99.90;;;;;;5113826;27;20200;-52
2022/05/30 06:21:09;;;;;;;4.47;2.50;;;12.70;99.90;;;;;;5110727;28;20253;-52
2022/05/30 06:23:37;;;;;;;4.57;2.30;;;12.60;99.90;;;;;;5110412;28;20215;-51
2022/05/30 06:26:06;;;;;;;6.27;2.00;;;12.60;99.90;;;;;;5095749;28;20632;-52
2022/05/30 06:28:37;;;;;;;6.23;1.93;;;12.60;99.90;;;;;;5111325;28;20699;-52
2022/05/30 06:31:09;;;;;;;5.67;2.10;;;12.70;99.90;;;;;;5111085;28;20238;-52
2022/05/30 06:33:38;;;;;;;4.67;2.10;;;12.80;99.90;;;;;;5110452;28;20266;-51
2022/05/30 06:36:08;;;;;;;3.63;1.80;;;12.90;99.90;;;;;;5111251;28;20203;-51
2022/05/30 06:38:37;;;;;;;3.60;1.90;;;12.90;99.90;;;;;;5116431;27;20729;-52
2022/05/30 06:41:13;;;;;;;4.13;1.90;;;13.00;99.90;;;;;;5097855;28;20852;-52
2022/05/30 06:43:44;;;;;;;5.07;2.80;;;13.20;99.90;;;;;;5101857;28;20346;-51
2022/05/30 06:46:13;;;;;;;4.13;2.17;;;13.30;99.90;;;;;;5110584;28;20216;-51
2022/05/30 06:48:42;;;;;;;6.80;2.90;;;13.40;99.90;;;;;;5110294;28;20244;-51
2022/05/30 06:51:12;;;;;;;5.70;2.00;;;13.50;99.90;;;;;;5109350;28;20280;-50
2022/05/30 06:53:41;;;;;;;4.23;2.00;;;13.40;99.90;;;;;;5102108;28;20259;-51
2022/05/30 06:56:13;;;;;;;3.63;1.70;;;13.50;99.90;;;;;;5110144;28;20241;-51
2022/05/30 06:58:44;;;;;;;4.83;2.03;;;13.40;99.90;;;;;;5115231;27;20223;-51
2022/05/30 07:01:13;;;;;;;4.83;1.80;;;13.40;99.90;;;;;;5110572;28;20243;-51
2022/05/30 07:03:41;;;;;;;6.50;2.40;;;13.50;99.90;;;;;;5106022;28;20315;-51
2022/05/30 07:06:11;;;;;;;5.97;3.13;;;13.50;99.90;;;;;;5091169;28;20208;-51
2022/05/30 07:08:41;;;;;;;7.47;5.70;;;13.70;99.90;;;;;;5109273;28;20233;-51
2022/05/30 07:11:09;;;;;;;4.17;1.80;;;13.80;99.90;;;;;;5110127;28;20587;-51
2022/05/30 07:13:37;;;;;;;5.00;1.87;;;13.90;99.90;;;;;;5109564;28;20646;-51
2022/05/30 07:16:08;;;;;;;4.33;2.30;;;14.00;99.90;;;;;;5102975;28;20204;-51
2022/05/30 07:18:37;;;;;;;5.97;2.13;;;14.30;99.90;;;;;;5105157;28;20212;-51
2022/05/30 07:21:07;;;;;;;5.60;2.00;;;14.40;99.90;;;;;;5109345;28;20261;-51
2022/05/30 07:23:37;;;;;;;3.43;1.70;;;14.70;99.90;;;;;;5098352;28;20220;-50
2022/05/30 07:26:08;;;;;;;4.75;2.10;;;15.00;99.90;;;;;;5093012;28;20203;-49
2022/05/30 07:28:36;;;;;;;4.55;1.60;;;15.30;99.90;;;;;;5109207;28;20256;-50
2022/05/30 07:31:07;;;;;;;5.88;1.98;;;15.30;99.90;;;;;;5103224;28;20664;-50
2022/05/30 07:33:37;;;;;;;3.67;1.67;;;15.30;99.90;;;;;;5087352;28;20281;-52
2022/05/30 07:36:09;;;;;;;6.22;2.20;;;15.00;99.90;;;;;;5089612;28;20212;-51
2022/05/30 07:38:37;;;;;;;4.35;1.95;;;15.00;99.90;;;;;;5101968;27;20231;-51
2022/05/30 07:41:05;;;;;;;5.53;1.90;;;14.80;99.90;;;;;;5088101;28;20212;-51
2022/05/30 07:43:34;;;;;;;4.13;2.20;;;14.60;99.90;;;;;;5103834;28;20333;-52
2022/05/30 07:46:02;;;;;;;4.20;1.88;;;14.30;99.90;;;;;;5100549;27;20208;-52
2022/05/30 07:48:32;;;;;;;4.83;1.70;;;14.30;99.90;;;;;;5096652;28;20211;-52
2022/05/30 07:51:02;;;;;;;4.23;2.00;;;14.30;99.90;;;;;;5095771;28;20685;-51
2022/05/30 07:53:30;;;;;;;7.90;3.67;;;14.30;99.90;;;;;;5101496;28;20219;-52
2022/05/30 07:55:59;;;;;;;7.10;3.00;;;14.30;99.90;;;;;;5106672;28;20238;-52
2022/05/30 07:58:28;;;;;;;5.93;2.30;;;14.30;99.90;;;;;;5111686;27;20217;-52
2022/05/30 08:00:56;;;;;;;3.97;2.13;;;14.40;99.90;;;;;;5101017;28;20211;-52
2022/05/30 08:03:25;;;;;;;5.03;2.20;;;14.50;99.90;;;;;;5090731;28;20230;-51
2022/05/30 08:06:04;;;;;;;5.87;2.17;;;14.50;99.90;;;;;;5088546;28;20759;-51
2022/05/30 08:08:32;;;;;;;4.63;1.90;;;14.40;99.90;;;;;;5087913;28;20235;-51
2022/05/30 08:11:00;;;;;;;5.20;1.93;;;14.40;99.90;;;;;;5088471;28;20243;-51
2022/05/30 08:13:28;;;;;;;4.47;2.17;;;14.50;99.90;;;;;;5087574;28;20231;-52
2022/05/30 08:15:57;;;;;;;3.60;2.07;;;14.50;99.90;;;;;;5088508;28;20207;-52
2022/05/30 08:18:25;;;;;;;4.53;1.90;;;14.60;99.90;;;;;;5101042;28;20314;-52
2022/05/30 08:20:53;;;;;;;5.10;1.93;;;14.80;99.90;;;;;;5088660;28;20208;-51
2022/05/30 08:23:24;;;;;;;5.30;1.95;;;15.10;99.90;;;;;;5093690;28;20223;-51
2022/05/30 08:25:52;;;;;;;5.20;1.93;;;15.40;99.90;;;;;;5089927;28;20265;-51
2022/05/30 08:28:21;;;;;;;5.22;1.80;;;15.40;99.90;;;;;;5108477;28;20207;-52
2022/05/30 08:30:50;;;;;;;3.77;1.70;;;15.30;99.90;;;;;;5109351;28;20212;-50
2022/05/30 08:33:20;;;;;;;3.97;2.00;;;15.50;99.90;;;;;;5110306;28;20252;-50
2022/05/30 08:35:59;;;;;;;4.28;1.83;;;15.30;99.90;;;;;;5109820;28;20230;-52
2022/05/30 08:38:33;;;;;;;3.50;1.70;;;15.20;99.90;;;;;;5108303;28;20288;-52
2022/05/30 08:43:51;;;;;;;5.50;1.92;;;15.10;99.90;;;;;;5091595;28;20224;-52
2022/05/30 08:46:33;;;;;;;2.97;1.73;;;14.90;99.90;;;;;;5089707;28;20661;-52
2022/05/30 08:49:17;;;;;;;4.25;1.75;;;14.70;99.90;;;;;;5093897;28;20196;-52
2022/05/30 08:52:11;;;;;;;4.22;1.58;;;14.60;99.90;;;;;;5113829;27;20682;-52
2022/05/30 08:55:00;;;;;;;3.80;1.73;;;14.50;99.90;;;;;;5090287;27;20232;-51
2022/05/30 08:57:36;;;;;;;5.07;2.05;;;14.70;99.90;;;;;;5103709;27;20292;-51
2022/05/30 09:00:12;;;;;;;5.13;1.70;;;14.70;99.90;;;;;;5092686;28;20251;-51
2022/05/30 09:02:45;;;;;;;2.35;1.77;;;14.80;99.90;;;;;;5094986;27;20772;-52
2022/05/30 09:05:18;;;;;;;4.47;2.00;;;15.00;99.90;;;;;;5090118;28;20228;-52
2022/05/30 09:08:11;;;;;;;2.92;1.75;;;15.20;99.90;;;;;;5093210;28;20516;-51
2022/05/30 09:10:46;;;;;;;4.07;1.88;;;15.20;99.90;;;;;;5091837;28;20228;-51
2022/05/30 09:13:19;;;;;;;3.70;1.40;;;15.00;99.90;;;;;;5096428;27;20299;-51
2022/05/30 09:16:02;;;;;;;2.65;1.52;;;15.10;99.90;;;;;;5090295;28;20211;-51
2022/05/30 09:18:34;;;;;;;3.10;1.55;;;15.40;99.90;;;;;;5090334;27;20674;-51
2022/05/30 09:21:03;;;;;;;3.07;1.50;;;15.40;99.90;;;;;;5092730;28;20211;-51
2022/05/30 09:23:31;;;;;;;3.33;1.23;;;15.70;99.90;;;;;;5107015;27;20223;-52
2022/05/30 09:26:01;;;;;;;2.28;1.63;;;16.00;99.90;;;;;;5094615;28;20203;-52
2022/05/30 09:28:32;;;;;;;4.10;1.48;;;16.10;99.90;;;;;;5111814;28;20256;-51
2022/05/30 09:31:13;;;;;;;5.47;1.48;;;16.40;99.90;;;;;;5102962;28;20261;-52
2022/05/30 09:33:44;;;;;;;4.07;1.38;;;16.50;99.90;;;;;;5108824;27;20219;-50
2022/05/30 09:36:17;;;;;;;1.75;1.20;;;16.50;99.90;;;;;;5124583;27;20227;-51
2022/05/30 09:38:48;;;;;;;2.10;1.40;;;16.70;99.90;;;;;;5106353;27;20220;-52
2022/05/30 09:41:22;;;;;;;2.67;1.35;;;16.80;99.90;;;;;;5103540;27;20204;-52
2022/05/30 09:43:55;;;;;;;3.55;2.17;;;16.90;99.90;;;;;;5091513;28;20750;-52
2022/05/30 09:46:34;;;;;;;23.15;5.45;;;16.90;99.60;;;;;;5092092;27;20200;-52
2022/05/30 09:49:07;;;;;;;1.95;1.20;;;17.10;99.30;;;;;;5096649;28;20319;-52
2022/05/30 09:51:42;;;;;;;3.80;1.40;;;17.40;99.90;;;;;;5091405;27;20200;-52
2022/05/30 09:54:12;;;;;;;2.72;1.40;;;17.90;99.90;;;;;;5091165;28;20224;-52
2022/05/30 09:56:45;;;;;;;2.72;1.50;;;17.70;99.20;;;;;;5095097;28;20243;-52
2022/05/30 09:59:28;;;;;;;3.88;1.20;;;17.70;99.40;;;;;;5102532;28;20255;-52
2022/05/30 10:01:57;;;;;;;5.32;1.63;;;17.60;99.30;;;;;;5093665;27;20274;-52
2022/05/30 10:04:36;;;;;;;2.08;1.20;;;17.80;99.90;;;;;;5090485;28;20262;-52
2022/05/30 10:07:08;;;;;;;5.05;1.70;;;17.80;98.40;;;;;;5092260;28;20261;-52
2022/05/30 10:09:41;;;;;;;4.25;1.40;;;17.80;99.70;;;;;;5099229;28;20926;-52
2022/05/30 10:12:11;;;;;;;5.50;1.83;;;17.60;97.10;;;;;;5091109;28;20208;-52
2022/05/30 10:14:40;;;;;;;2.80;1.25;;;17.40;97.80;;;;;;5093019;28;20235;-53
2022/05/30 10:17:14;;;;;;;2.58;1.38;;;17.30;97.10;;;;;;5097385;27;20286;-52
2022/05/30 10:19:48;;;;;;;3.13;1.52;;;17.20;97.40;;;;;;5094235;28;20923;-51
2022/05/30 10:28:34;;;;;;;2.58;1.20;;;17.90;99.20;;;;;;5100110;28;20236;-52
2022/05/30 10:31:09;;;;;;;3.13;1.30;;;18.00;97.50;;;;;;5105629;28;20215;-51
2022/05/30 10:34:04;;;;;;;2.85;1.33;;;18.00;97.40;;;;;;5100953;28;20310;-52
2022/05/30 10:36:44;;;;;;;2.53;1.15;;;17.80;97.30;;;;;;5104527;28;20207;-51
2022/05/30 10:39:20;;;;;;;2.65;1.20;;;17.90;98.20;;;;;;5093549;28;20232;-52
2022/05/30 10:41:55;;;;;;;4.15;1.30;;;18.10;98.70;;;;;;5105030;28;20864;-52
2022/05/30 10:44:28;;;;;;;3.40;1.13;;;18.20;99.60;;;;;;5108738;28;20203;-52
2022/05/30 10:47:01;;;;;;;1.35;1.23;;;18.00;98.40;;;;;;5100152;28;20688;-52
2022/05/30 10:49:34;;;;;;;2.03;1.33;;;18.10;99.10;;;;;;5104991;28;20654;-52
2022/05/30 10:52:07;;;;;;;1.52;1.20;;;18.10;98.60;;;;;;5106988;28;20208;-52
2022/05/30 10:54:40;;;;;;;2.45;1.40;;;18.30;97.60;;;;;;5107081;28;20239;-51
2022/05/30 10:57:18;;;;;;;2.85;1.40;;;18.40;99.30;;;;;;5100003;28;20243;-52
2022/05/30 10:59:52;;;;;;;2.45;1.23;;;18.40;97.50;;;;;;5097549;28;20215;-51
2022/05/30 11:02:27;;;;;;;3.45;1.25;;;18.30;98.00;;;;;;5087618;28;20228;-52
2022/05/30 11:05:01;;;;;;;5.55;1.52;;;18.10;96.50;;;;;;5088743;28;20211;-51
2022/05/30 11:07:48;;;;;;;3.53;1.42;;;18.30;97.50;;;;;;5087915;28;20204;-52
2022/05/30 11:10:35;;;;;;;4.20;1.50;;;18.30;98.10;;;;;;5095696;28;20596;-51
2022/05/30 11:13:10;;;;;;;2.45;1.35;;;18.70;95.30;;;;;;5087060;28;20232;-52
2022/05/30 11:15:45;;;;;;;2.80;1.40;;;18.40;96.20;;;;;;5087329;28;20242;-51
2022/05/30 11:18:20;;;;;;;3.17;1.40;;;18.30;96.30;;;;;;5087704;28;20208;-52
2022/05/30 11:20:58;;;;;;;2.47;1.45;;;18.50;97.80;;;;;;5092923;27;20304;-52
2022/05/30 11:23:26;;;;;;;4.40;2.10;;;18.50;97.90;;;;;;5107756;27;20262;-52
2022/05/30 11:26:23;;;;;;;2.72;1.85;;;18.60;98.50;;;;;;5089223;28;20265;-52
2022/05/30 11:29:10;;;;;;;8.48;4.78;;;18.40;97.70;;;;;;5108241;28;20271;-51
2022/05/30 11:31:46;;;;;;;5.60;3.17;;;18.00;97.40;;;;;;5110318;27;20195;-51
2022/05/30 11:34:43;;;;;;;4.13;2.20;;;18.10;99.00;;;;;;5119192;27;20226;-52
2022/05/30 11:37:51;;;;;;;3.35;1.75;;;18.00;97.70;;;;;;5116383;27;20288;-52
2022/05/30 11:40:30;;;;;;;3.08;1.70;;;18.00;99.90;;;;;;5097883;27;20230;-52
2022/05/30 11:43:27;;;;;;;5.22;1.80;;;17.90;98.20;;;;;;5111348;27;20223;-52
2022/05/30 11:45:59;;;;;;;3.80;1.88;;;17.80;96.40;;;;;;5109388;28;20223;-52
2022/05/30 11:48:37;;;;;;;3.38;1.70;;;17.80;97.80;;;;;;5109034;28;20207;-52
2022/05/30 11:51:16;;;;;;;5.13;1.70;;;17.70;96.90;;;;;;5109581;28;20203;-52
2022/05/30 11:54:04;;;;;;;4.47;2.17;;;17.70;97.80;;;;;;5106953;28;20231;-52
2022/05/30 11:56:43;;;;;;;3.58;1.80;;;17.50;98.90;;;;;;5109958;27;20207;-52
2022/05/30 11:59:38;;;;;;;3.08;1.70;;;17.40;98.70;;;;;;5109259;28;20223;-51
2022/05/30 12:02:14;;;;;;;3.45;1.75;;;17.40;97.70;;;;;;5091604;28;20726;-51
2022/05/30 12:05:23;;;;;;;3.28;1.70;;;17.20;97.00;;;;;;5101909;28;20252;-51
2022/05/30 12:08:23;;;;;;;2.70;1.80;;;17.20;96.80;;;;;;5099823;28;20203;-52
2022/05/30 12:11:11;;;;;;;4.97;1.80;;;17.30;98.40;;;;;;5100291;28;20227;-52
2022/05/30 12:13:55;;;;;;;3.35;1.55;;;17.20;97.10;;;;;;5106811;28;20626;-52
2022/05/30 12:16:40;;;;;;;3.05;1.80;;;17.00;97.70;;;;;;5108026;28;20207;-51
2022/05/30 12:25:46;;;;;;;3.75;1.80;;;17.00;96.60;;;;;;5097723;28;20240;-52
2022/05/30 12:28:50;;;;;;;2.38;1.63;;;17.10;96.70;;;;;;5096561;28;20214;-51
2022/05/30 12:31:35;;;;;;;3.30;2.00;;;17.20;96.30;;;;;;5104437;28;20191;-52
2022/05/30 12:34:06;;;;;;;2.85;1.65;;;17.50;95.90;;;;;;5119790;28;20310;-52
2022/05/30 12:36:45;;;;;;;2.17;1.55;;;17.60;96.10;;;;;;5105963;28;20225;-52
2022/05/30 12:39:39;;;;;;;3.72;1.90;;;17.80;96.70;;;;;;5115251;28;20219;-52
2022/05/30 12:42:19;;;;;;;2.83;1.63;;;17.90;95.20;;;;;;5111768;28;20211;-52
2022/05/30 12:44:52;;;;;;;2.67;2.00;;;17.90;96.80;;;;;;5108385;28;20217;-52
2022/05/30 12:47:28;;;;;;;3.13;1.70;;;18.10;95.10;;;;;;5103161;28;20199;-52
2022/05/30 12:50:24;;;;;;;3.20;1.90;;;17.90;95.70;;;;;;5089381;28;20598;-52
2022/05/30 12:52:55;;;;;;;2.42;1.63;;;18.00;95.60;;;;;;5086358;28;20224;-51
2022/05/30 12:55:37;;;;;;;3.60;1.75;;;18.10;96.20;;;;;;5106154;28;20208;-52
2022/05/30 12:58:06;;;;;;;4.38;1.80;;;18.20;96.80;;;;;;5087901;28;20216;-52
2022/05/30 13:01:08;;;;;;;3.33;1.70;;;18.10;94.70;;;;;;5090492;28;20637;-52
2022/05/30 13:03:46;;;;;;;3.30;1.85;;;18.20;95.30;;;;;;5088196;28;20732;-51
2022/05/30 13:06:20;;;;;;;2.40;1.83;;;18.30;96.70;;;;;;5096067;28;20239;-51
2022/05/30 13:08:58;;;;;;;4.50;1.75;;;18.30;95.10;;;;;;5088650;28;20258;-52
2022/05/30 13:12:03;;;;;;;6.22;3.70;;;18.30;95.00;;;;;;5090461;28;20285;-52
2022/05/30 13:15:13;;;;;;;3.83;1.60;;;18.30;94.90;;;;;;5103996;28;20726;-51
2022/05/30 13:17:57;;;;;;;3.00;1.77;;;18.40;94.90;;;;;;5121717;28;20939;-51
2022/05/30 13:20:30;;;;;;;3.30;1.90;;;18.30;94.60;;;;;;5105451;28;20633;-51
2022/05/30 13:23:01;;;;;;;4.30;1.60;;;18.20;94.50;;;;;;5091794;28;20228;-51
2022/05/30 13:25:32;;;;;;;3.83;1.63;;;18.10;94.20;;;;;;5089796;28;20266;-51
2022/05/30 13:28:07;;;;;;;2.80;1.50;;;18.00;94.60;;;;;;5111173;28;20239;-51
2022/05/30 13:30:37;;;;;;;3.08;1.63;;;18.00;94.00;;;;;;5110803;28;20196;-51
2022/05/30 13:33:13;;;;;;;3.47;1.80;;;17.80;94.00;;;;;;5110794;28;20227;-51
2022/05/30 13:35:42;;;;;;;3.20;1.70;;;17.90;94.00;;;;;;5111436;28;20935;-52
2022/05/30 13:38:14;;;;;;;5.38;1.60;;;17.80;95.20;;;;;;5106226;27;20216;-51
2022/05/30 13:40:45;;;;;;;3.97;2.08;;;17.80;96.80;;;;;;5089182;28;20248;-51
2022/05/30 13:43:21;;;;;;;2.17;1.67;;;17.90;97.10;;;;;;5097235;28;20223;-51